sensor_id;sensor_type;location;lat;lon;timestamp;pressure;altitude;pressure_sealevel;temperature;humidity
75747;BME280;64363;52.198;21.020;2023-05-02T01:05:14;100337.72;;;9.73;55.09
75747;BME280;64363;52.198;21.020;2023-05-02T01:13:02;100333.94;;;9.80;55.31
75747;BME280;64363;52.198;21.020;2023-05-02T01:15:33;100330.47;;;9.78;55.60
75747;BME280;64363;52.198;21.020;2023-05-02T01:18:02;100336.84;;;9.72;55.28
75747;BME280;64363;52.198;21.020;2023-05-02T01:20:32;100333.94;;;9.80;55.28
75747;BME280;64363;52.198;21.020;2023-05-02T01:23:08;100327.84;;;9.76;55.44
75747;BME280;64363;52.198;21.020;2023-05-02T01:31:24;100327.97;;;9.72;56.57
75747;BME280;64363;52.198;21.020;2023-05-02T01:33:54;100327.16;;;9.70;56.26
75747;BME280;64363;52.198;21.020;2023-05-02T01:36:22;100324.53;;;9.68;55.76
75747;BME280;64363;52.198;21.020;2023-05-02T01:38:51;100321.22;;;9.60;56.58
75747;BME280;64363;52.198;21.020;2023-05-02T01:41:19;100316.69;;;9.64;55.65
75747;BME280;64363;52.198;21.020;2023-05-02T01:43:46;100315.66;;;9.68;55.91
75747;BME280;64363;52.198;21.020;2023-05-02T01:46:13;100317.63;;;9.63;55.42
75747;BME280;64363;52.198;21.020;2023-05-02T01:48:43;100311.28;;;9.67;55.81
75747;BME280;64363;52.198;21.020;2023-05-02T01:51:10;100298.09;;;9.62;55.99
75747;BME280;64363;52.198;21.020;2023-05-02T01:53:37;100304.38;;;9.60;56.17
75747;BME280;64363;52.198;21.020;2023-05-02T01:56:04;100300.91;;;9.58;56.37
75747;BME280;64363;52.198;21.020;2023-05-02T01:58:31;100302.66;;;9.59;56.84
75747;BME280;64363;52.198;21.020;2023-05-02T02:00:59;100301.72;;;9.60;56.26
75747;BME280;64363;52.198;21.020;2023-05-02T02:03:28;100300.91;;;9.58;56.76
75747;BME280;64363;52.198;21.020;2023-05-02T02:05:54;100299.00;;;9.61;57.14
75747;BME280;64363;52.198;21.020;2023-05-02T02:08:21;100294.00;;;9.51;57.79
75747;BME280;64363;52.198;21.020;2023-05-02T02:10:52;100291.25;;;9.54;57.21
75747;BME280;64363;52.198;21.020;2023-05-02T02:13:26;100292.16;;;9.53;56.87
75747;BME280;64363;52.198;21.020;2023-05-02T02:15:58;100287.06;;;9.45;56.94
75747;BME280;64363;52.198;21.020;2023-05-02T02:18:28;100279.88;;;9.47;56.82
75747;BME280;64363;52.198;21.020;2023-05-02T02:20:58;100281.19;;;9.34;57.96
75747;BME280;64363;52.198;21.020;2023-05-02T02:23:25;100272.41;;;9.30;57.57
75747;BME280;64363;52.198;21.020;2023-05-02T02:25:53;100280.41;;;9.30;57.84
75747;BME280;64363;52.198;21.020;2023-05-02T02:28:20;100278.78;;;9.23;57.98
75747;BME280;64363;52.198;21.020;2023-05-02T02:30:46;100274.44;;;9.21;58.12
75747;BME280;64363;52.198;21.020;2023-05-02T02:33:12;100277.97;;;9.21;58.72
75747;BME280;64363;52.198;21.020;2023-05-02T02:35:41;100278.13;;;9.15;58.74
75747;BME280;64363;52.198;21.020;2023-05-02T02:38:16;100271.03;;;9.16;58.05
75747;BME280;64363;52.198;21.020;2023-05-02T02:43:59;100279.22;;;9.08;58.91
75747;BME280;64363;52.198;21.020;2023-05-02T02:46:49;100281.06;;;9.06;58.64
75747;BME280;64363;52.198;21.020;2023-05-02T02:49:58;100279.25;;;9.07;59.50
75747;BME280;64363;52.198;21.020;2023-05-02T02:52:31;100275.91;;;9.00;59.43
75747;BME280;64363;52.198;21.020;2023-05-02T02:55:03;100271.44;;;9.02;59.20
75747;BME280;64363;52.198;21.020;2023-05-02T02:57:38;100272.25;;;9.04;59.78
75747;BME280;64363;52.198;21.020;2023-05-02T03:00:18;100271.38;;;9.04;59.77
75747;BME280;64363;52.198;21.020;2023-05-02T03:02:46;100275.09;;;8.98;59.41
75747;BME280;64363;52.198;21.020;2023-05-02T03:05:12;100263.50;;;8.99;58.87
75747;BME280;64363;52.198;21.020;2023-05-02T03:07:39;100268.13;;;8.92;59.29
75747;BME280;64363;52.198;21.020;2023-05-02T03:10:05;100276.06;;;8.94;59.60
75747;BME280;64363;52.198;21.020;2023-05-02T03:12:31;100273.28;;;8.99;59.98
75747;BME280;64363;52.198;21.020;2023-05-02T03:17:58;100267.34;;;8.89;58.92
75747;BME280;64363;52.198;21.020;2023-05-02T03:20:24;100271.75;;;8.90;59.16
75747;BME280;64363;52.198;21.020;2023-05-02T03:22:49;100276.22;;;8.88;59.76
75747;BME280;64363;52.198;21.020;2023-05-02T03:25:15;100270.97;;;8.86;60.55
75747;BME280;64363;52.198;21.020;2023-05-02T03:27:41;100269.00;;;8.93;60.76
75747;BME280;64363;52.198;21.020;2023-05-02T03:30:07;100264.78;;;8.84;60.53
75747;BME280;64363;52.198;21.020;2023-05-02T03:32:32;100271.78;;;8.88;59.92
75747;BME280;64363;52.198;21.020;2023-05-02T03:34:58;100270.81;;;8.91;60.91
75747;BME280;64363;52.198;21.020;2023-05-02T03:37:24;100266.47;;;8.88;60.23
75747;BME280;64363;52.198;21.020;2023-05-02T03:39:50;100267.25;;;8.92;60.91
75747;BME280;64363;52.198;21.020;2023-05-02T03:42:16;100268.00;;;8.97;60.78
75747;BME280;64363;52.198;21.020;2023-05-02T03:44:41;100276.06;;;8.94;59.99
75747;BME280;64363;52.198;21.020;2023-05-02T03:47:07;100278.66;;;8.97;60.49
75747;BME280;64363;52.198;21.020;2023-05-02T03:49:33;100281.41;;;8.94;60.30
75747;BME280;64363;52.198;21.020;2023-05-02T03:51:59;100271.53;;;8.98;60.91
75747;BME280;64363;52.198;21.020;2023-05-02T03:54:25;100276.88;;;8.98;59.23
75747;BME280;64363;52.198;21.020;2023-05-02T03:56:53;100275.81;;;9.03;60.11
75747;BME280;64363;52.198;21.020;2023-05-02T03:59:19;100279.22;;;9.08;60.52
75747;BME280;64363;52.198;21.020;2023-05-02T04:01:47;100281.84;;;9.10;60.38
75747;BME280;64363;52.198;21.020;2023-05-02T04:04:15;100276.34;;;9.16;60.32
75747;BME280;64363;52.198;21.020;2023-05-02T04:06:41;100284.06;;;9.26;58.97
75747;BME280;64363;52.198;21.020;2023-05-02T04:09:06;100281.44;;;9.25;59.53
75747;BME280;64363;52.198;21.020;2023-05-02T04:11:32;100287.63;;;9.25;60.22
75747;BME280;64363;52.198;21.020;2023-05-02T04:13:58;100276.88;;;9.28;59.87
75747;BME280;64363;52.198;21.020;2023-05-02T04:16:24;100279.75;;;9.22;59.12
75747;BME280;64363;52.198;21.020;2023-05-02T04:18:50;100273.31;;;9.29;60.47
75747;BME280;64363;52.198;21.020;2023-05-02T04:21:15;100275.97;;;9.29;61.04
75747;BME280;64363;52.198;21.020;2023-05-02T04:23:41;100287.38;;;9.34;59.45
75747;BME280;64363;52.198;21.020;2023-05-02T04:26:06;100281.97;;;9.37;60.29
75747;BME280;64363;52.198;21.020;2023-05-02T04:28:34;100283.72;;;9.38;60.05
75747;BME280;64363;52.198;21.020;2023-05-02T04:30:59;100278.41;;;9.38;59.07
75747;BME280;64363;52.198;21.020;2023-05-02T04:33:25;100275.75;;;9.37;59.03
75747;BME280;64363;52.198;21.020;2023-05-02T04:35:51;100276.53;;;9.40;60.16
75747;BME280;64363;52.198;21.020;2023-05-02T04:38:17;100283.38;;;9.51;60.00
75747;BME280;64363;52.198;21.020;2023-05-02T04:40:43;100278.75;;;9.56;60.25
75747;BME280;64363;52.198;21.020;2023-05-02T04:43:09;100277.84;;;9.57;60.72
75747;BME280;64363;52.198;21.020;2023-05-02T04:45:35;100277.84;;;9.57;60.31
75747;BME280;64363;52.198;21.020;2023-05-02T04:48:02;100286.75;;;9.56;60.58
75747;BME280;64363;52.198;21.020;2023-05-02T04:50:27;100289.50;;;9.53;60.11
75747;BME280;64363;52.198;21.020;2023-05-02T04:52:54;100280.63;;;9.52;60.78
75747;BME280;64363;52.198;21.020;2023-05-02T04:55:19;100278.94;;;9.50;60.29
75747;BME280;64363;52.198;21.020;2023-05-02T04:57:45;100282.72;;;9.43;58.77
75747;BME280;64363;52.198;21.020;2023-05-02T05:00:11;100281.00;;;9.40;58.91
75747;BME280;64363;52.198;21.020;2023-05-02T05:02:37;100277.19;;;9.49;59.64
75747;BME280;64363;52.198;21.020;2023-05-02T05:05:04;100281.00;;;9.40;58.71
75747;BME280;64363;52.198;21.020;2023-05-02T05:07:30;100280.91;;;9.43;58.96
75747;BME280;64363;52.198;21.020;2023-05-02T05:09:56;100276.09;;;9.56;59.56
75747;BME280;64363;52.198;21.020;2023-05-02T05:12:22;100268.84;;;9.61;59.90
75747;BME280;64363;52.198;21.020;2023-05-02T05:14:48;100268.50;;;9.73;59.66
75747;BME280;64363;52.198;21.020;2023-05-02T05:17:15;100268.91;;;9.88;60.15
75747;BME280;64363;52.198;21.020;2023-05-02T05:19:40;100273.09;;;9.97;58.56
75747;BME280;64363;52.198;21.020;2023-05-02T05:22:07;100269.13;;;10.10;59.04
75747;BME280;64363;52.198;21.020;2023-05-02T05:24:32;100274.34;;;10.13;57.43
75747;BME280;64363;52.198;21.020;2023-05-02T05:26:58;100266.25;;;10.18;57.73
75747;BME280;64363;52.198;21.020;2023-05-02T05:29:24;100264.06;;;10.30;57.78
75747;BME280;64363;52.198;21.020;2023-05-02T05:31:49;100264.59;;;10.42;57.14
75747;BME280;64363;52.198;21.020;2023-05-02T05:34:15;100265.06;;;10.54;56.99
75747;BME280;64363;52.198;21.020;2023-05-02T05:36:41;100270.25;;;10.59;56.95
75747;BME280;64363;52.198;21.020;2023-05-02T05:39:07;100269.75;;;10.72;56.36
75747;BME280;64363;52.198;21.020;2023-05-02T05:41:33;100267.44;;;10.88;56.15
75747;BME280;64363;52.198;21.020;2023-05-02T05:43:59;100273.06;;;11.05;56.47
75747;BME280;64363;52.198;21.020;2023-05-02T05:46:25;100270.75;;;11.19;56.26
75747;BME280;64363;52.198;21.020;2023-05-02T05:48:51;100275.44;;;11.38;54.18
75747;BME280;64363;52.198;21.020;2023-05-02T05:51:17;100267.59;;;11.58;54.12
75747;BME280;64363;52.198;21.020;2023-05-02T05:53:42;100257.94;;;11.79;53.52
75747;BME280;64363;52.198;21.020;2023-05-02T05:56:12;100260.88;;;11.94;53.18
75747;BME280;64363;52.198;21.020;2023-05-02T05:58:38;100256.69;;;11.87;52.97
75747;BME280;64363;52.198;21.020;2023-05-02T06:01:05;100257.94;;;12.00;53.62
75747;BME280;64363;52.198;21.020;2023-05-02T06:03:31;100250.66;;;12.04;53.16
75747;BME280;64363;52.198;21.020;2023-05-02T06:05:56;100256.53;;;12.13;53.25
75747;BME280;64363;52.198;21.020;2023-05-02T06:08:22;100264.88;;;12.28;53.64
75747;BME280;64363;52.198;21.020;2023-05-02T06:10:48;100254.44;;;12.43;53.99
75747;BME280;64363;52.198;21.020;2023-05-02T06:13:14;100255.72;;;12.55;53.04
75747;BME280;64363;52.198;21.020;2023-05-02T06:15:40;100249.47;;;12.76;53.02
75747;BME280;64363;52.198;21.020;2023-05-02T06:18:05;100256.31;;;13.03;52.94
75747;BME280;64363;52.198;21.020;2023-05-02T06:20:31;100252.91;;;13.20;52.08
75747;BME280;64363;52.198;21.020;2023-05-02T06:22:57;100261.81;;;13.41;51.65
75747;BME280;64363;52.198;21.020;2023-05-02T06:25:22;100261.13;;;13.56;50.55
75747;BME280;64363;52.198;21.020;2023-05-02T06:27:48;100269.91;;;13.78;50.89
75747;BME280;64363;52.198;21.020;2023-05-02T06:30:14;100269.28;;;13.92;50.89
75747;BME280;64363;52.198;21.020;2023-05-02T06:32:39;100269.84;;;13.98;51.24
75747;BME280;64363;52.198;21.020;2023-05-02T06:35:09;100270.00;;;13.95;51.62
75747;BME280;64363;52.198;21.020;2023-05-02T06:37:35;100274.19;;;14.01;52.02
75747;BME280;64363;52.198;21.020;2023-05-02T06:40:02;100272.97;;;14.08;52.23
75747;BME280;64363;52.198;21.020;2023-05-02T06:42:27;100271.38;;;14.23;51.99
75747;BME280;64363;52.198;21.020;2023-05-02T06:44:54;100264.59;;;14.33;51.39
75747;BME280;64363;52.198;21.020;2023-05-02T06:47:20;100267.22;;;14.53;51.13
75747;BME280;64363;52.198;21.020;2023-05-02T06:49:46;100262.97;;;14.66;50.96
75747;BME280;64363;52.198;21.020;2023-05-02T06:52:12;100276.09;;;14.72;50.45
75747;BME280;64363;52.198;21.020;2023-05-02T06:54:38;100272.25;;;14.95;51.51
75747;BME280;64363;52.198;21.020;2023-05-02T06:57:03;100265.84;;;14.97;50.76
75747;BME280;64363;52.198;21.020;2023-05-02T06:59:29;100266.31;;;15.06;50.76
75747;BME280;64363;52.198;21.020;2023-05-02T07:01:55;100270.34;;;15.14;51.07
75747;BME280;64363;52.198;21.020;2023-05-02T07:04:21;100270.56;;;15.27;50.64
75747;BME280;64363;52.198;21.020;2023-05-02T07:06:46;100277.06;;;15.40;50.62
75747;BME280;64363;52.198;21.020;2023-05-02T07:09:12;100273.41;;;15.58;50.36
75747;BME280;64363;52.198;21.020;2023-05-02T07:11:38;100266.84;;;15.64;49.97
75747;BME280;64363;52.198;21.020;2023-05-02T07:14:04;100269.88;;;15.73;50.02
75747;BME280;64363;52.198;21.020;2023-05-02T07:16:29;100266.44;;;15.87;49.15
75747;BME280;64363;52.198;21.020;2023-05-02T07:18:55;100263.44;;;16.09;49.04
75747;BME280;64363;52.198;21.020;2023-05-02T07:21:21;100262.47;;;16.25;47.60
75747;BME280;64363;52.198;21.020;2023-05-02T07:23:46;100260.75;;;16.40;47.83
75747;BME280;64363;52.198;21.020;2023-05-02T07:26:12;100266.03;;;16.57;47.64
75747;BME280;64363;52.198;21.020;2023-05-02T07:28:38;100263.63;;;16.68;47.12
75747;BME280;64363;52.198;21.020;2023-05-02T07:31:03;100274.94;;;16.89;45.89
75747;BME280;64363;52.198;21.020;2023-05-02T07:33:29;100260.66;;;17.03;44.93
75747;BME280;64363;52.198;21.020;2023-05-02T07:35:55;100262.88;;;17.10;44.34
75747;BME280;64363;52.198;21.020;2023-05-02T07:38:21;100256.00;;;17.20;44.33
75747;BME280;64363;52.198;21.020;2023-05-02T07:40:46;100258.81;;;17.33;43.91
75747;BME280;64363;52.198;21.020;2023-05-02T07:43:13;100258.91;;;17.46;44.14
75747;BME280;64363;52.198;21.020;2023-05-02T07:45:40;100261.81;;;17.57;44.67
75747;BME280;64363;52.198;21.020;2023-05-02T07:48:05;100264.47;;;17.72;42.59
75747;BME280;64363;52.198;21.020;2023-05-02T07:50:31;100276.28;;;17.70;42.38
75747;BME280;64363;52.198;21.020;2023-05-02T07:52:57;100266.97;;;17.75;42.19
75747;BME280;64363;52.198;21.020;2023-05-02T07:55:22;100255.59;;;17.85;42.54
75747;BME280;64363;52.198;21.020;2023-05-02T07:57:51;100251.34;;;17.95;42.52
75747;BME280;64363;52.198;21.020;2023-05-02T08:00:17;100260.22;;;17.97;42.54
75747;BME280;64363;52.198;21.020;2023-05-02T08:02:43;100264.53;;;17.99;42.27
75747;BME280;64363;52.198;21.020;2023-05-02T08:05:10;100264.31;;;18.02;42.24
75747;BME280;64363;52.198;21.020;2023-05-02T08:07:36;100279.28;;;18.08;42.05
75747;BME280;64363;52.198;21.020;2023-05-02T08:10:02;100268.00;;;18.01;42.74
75747;BME280;64363;52.198;21.020;2023-05-02T08:12:27;100279.19;;;18.09;42.84
75747;BME280;64363;52.198;21.020;2023-05-02T08:14:53;100279.56;;;18.03;42.56
75747;BME280;64363;52.198;21.020;2023-05-02T08:17:19;100283.59;;;18.10;42.62
75747;BME280;64363;52.198;21.020;2023-05-02T08:19:46;100290.94;;;18.08;42.70
75747;BME280;64363;52.198;21.020;2023-05-02T08:22:11;100269.31;;;18.22;42.89
75747;BME280;64363;52.198;21.020;2023-05-02T08:24:37;100270.75;;;18.28;42.50
75747;BME280;64363;52.198;21.020;2023-05-02T08:27:03;100281.50;;;18.42;42.19
75747;BME280;64363;52.198;21.020;2023-05-02T08:29:29;100268.38;;;18.50;42.28
75747;BME280;64363;52.198;21.020;2023-05-02T08:31:56;100272.81;;;18.51;42.26
75747;BME280;64363;52.198;21.020;2023-05-02T08:34:21;100283.03;;;18.46;42.90
75747;BME280;64363;52.198;21.020;2023-05-02T08:36:47;100279.19;;;18.50;42.61
75747;BME280;64363;52.198;21.020;2023-05-02T08:39:13;100276.22;;;18.41;42.93
75747;BME280;64363;52.198;21.020;2023-05-02T08:41:38;100292.78;;;18.63;43.43
75747;BME280;64363;52.198;21.020;2023-05-02T08:44:05;100303.13;;;18.56;42.94
75747;BME280;64363;52.198;21.020;2023-05-02T08:46:34;100293.66;;;18.63;43.25
75747;BME280;64363;52.198;21.020;2023-05-02T08:49:01;100295.53;;;18.76;42.71
75747;BME280;64363;52.198;21.020;2023-05-02T08:51:29;100310.56;;;18.80;42.62
75747;BME280;64363;52.198;21.020;2023-05-02T08:53:57;100293.50;;;18.79;42.58
75747;BME280;64363;52.198;21.020;2023-05-02T08:56:24;100303.38;;;18.93;42.94
75747;BME280;64363;52.198;21.020;2023-05-02T08:58:50;100294.47;;;19.05;42.81
75747;BME280;64363;52.198;21.020;2023-05-02T09:01:17;100293.09;;;19.25;42.63
75747;BME280;64363;52.198;21.020;2023-05-02T09:03:45;100296.00;;;19.34;42.21
75747;BME280;64363;52.198;21.020;2023-05-02T09:06:21;100299.75;;;19.58;41.66
75747;BME280;64363;52.198;21.020;2023-05-02T09:08:50;100307.56;;;19.76;41.37
75747;BME280;64363;52.198;21.020;2023-05-02T09:11:19;100294.66;;;19.67;41.50
75747;BME280;64363;52.198;21.020;2023-05-02T09:13:50;100299.34;;;19.90;41.25
75747;BME280;64363;52.198;21.020;2023-05-02T09:16:22;100296.09;;;19.85;40.70
75747;BME280;64363;52.198;21.020;2023-05-02T09:18:55;100296.03;;;20.10;41.17
75747;BME280;64363;52.198;21.020;2023-05-02T09:21:23;100298.75;;;20.10;40.75
75747;BME280;64363;52.198;21.020;2023-05-02T09:23:54;100299.72;;;20.22;40.25
75747;BME280;64363;52.198;21.020;2023-05-02T09:26:28;100302.22;;;20.12;40.38
75747;BME280;64363;52.198;21.020;2023-05-02T09:29:02;100304.72;;;20.02;40.58
75747;BME280;64363;52.198;21.020;2023-05-02T09:31:33;100313.38;;;19.95;41.23
75747;BME280;64363;52.198;21.020;2023-05-02T09:34:08;100317.09;;;19.94;41.06
75747;BME280;64363;52.198;21.020;2023-05-02T09:37:00;100320.34;;;19.74;41.98
75747;BME280;64363;52.198;21.020;2023-05-02T09:39:28;100316.00;;;19.84;41.52
75747;BME280;64363;52.198;21.020;2023-05-02T09:41:54;100333.97;;;19.97;41.95
75747;BME280;64363;52.198;21.020;2023-05-02T09:44:22;100324.22;;;19.95;41.96
75747;BME280;64363;52.198;21.020;2023-05-02T09:46:49;100324.66;;;19.89;42.01
75747;BME280;64363;52.198;21.020;2023-05-02T09:49:15;100340.47;;;19.70;42.61
75747;BME280;64363;52.198;21.020;2023-05-02T09:51:48;100331.28;;;19.85;42.48
75747;BME280;64363;52.198;21.020;2023-05-02T09:54:14;100338.72;;;19.69;42.80
75747;BME280;64363;52.198;21.020;2023-05-02T09:56:58;100333.66;;;19.77;42.79
75747;BME280;64363;52.198;21.020;2023-05-02T09:59:24;100332.97;;;20.11;41.91
75747;BME280;64363;52.198;21.020;2023-05-02T10:01:57;100339.50;;;20.08;42.05
75747;BME280;64363;52.198;21.020;2023-05-02T10:04:24;100337.50;;;20.23;42.01
75747;BME280;64363;52.198;21.020;2023-05-02T10:06:51;100348.78;;;20.17;42.14
75747;BME280;64363;52.198;21.020;2023-05-02T10:09:18;100347.16;;;20.15;41.91
75747;BME280;64363;52.198;21.020;2023-05-02T10:11:45;100361.03;;;19.97;42.45
75747;BME280;64363;52.198;21.020;2023-05-02T10:14:11;100365.78;;;20.06;42.48
75747;BME280;64363;52.198;21.020;2023-05-02T10:17:09;100365.38;;;20.00;42.88
75747;BME280;64363;52.198;21.020;2023-05-02T10:22:13;100348.25;;;19.99;43.45
75747;BME280;64363;52.198;21.020;2023-05-02T10:24:40;100367.03;;;19.50;43.94
75747;BME280;64363;52.198;21.020;2023-05-02T10:27:07;100364.09;;;19.14;45.19
75747;BME280;64363;52.198;21.020;2023-05-02T10:29:32;100365.88;;;19.28;45.74
75747;BME280;64363;52.198;21.020;2023-05-02T10:31:59;100377.50;;;19.42;45.90
75747;BME280;64363;52.198;21.020;2023-05-02T10:34:26;100377.69;;;19.39;46.58
75747;BME280;64363;52.198;21.020;2023-05-02T10:36:54;100381.00;;;19.30;47.15
75747;BME280;64363;52.198;21.020;2023-05-02T10:39:20;100393.47;;;19.06;47.51
75747;BME280;64363;52.198;21.020;2023-05-02T10:41:52;100384.81;;;19.01;47.68
75747;BME280;64363;52.198;21.020;2023-05-02T10:44:35;100382.47;;;19.09;48.58
75747;BME280;64363;52.198;21.020;2023-05-02T10:47:25;100397.47;;;18.86;48.69
75747;BME280;64363;52.198;21.020;2023-05-02T10:49:59;100393.50;;;18.65;49.34
75747;BME280;64363;52.198;21.020;2023-05-02T10:52:35;100406.09;;;18.50;50.26
75747;BME280;64363;52.198;21.020;2023-05-02T10:55:19;100404.19;;;18.24;50.41
75747;BME280;64363;52.198;21.020;2023-05-02T11:00:25;100412.44;;;17.93;51.58
75747;BME280;64363;52.198;21.020;2023-05-02T11:02:51;100427.16;;;17.87;51.66
75747;BME280;64363;52.198;21.020;2023-05-02T11:05:16;100432.94;;;17.81;52.13
75747;BME280;64363;52.198;21.020;2023-05-02T11:07:43;100431.19;;;17.80;51.74
75747;BME280;64363;52.198;21.020;2023-05-02T11:12:43;100443.56;;;17.23;53.39
75747;BME280;64363;52.198;21.020;2023-05-02T11:15:10;100444.72;;;17.03;53.68
75747;BME280;64363;52.198;21.020;2023-05-02T11:18:05;100478.84;;;16.71;57.15
75747;BME280;64363;52.198;21.020;2023-05-02T11:20:34;100477.44;;;16.47;57.83
75747;BME280;64363;52.198;21.020;2023-05-02T11:25:40;100478.63;;;15.91;61.79
75747;BME280;64363;52.198;21.020;2023-05-02T11:28:07;100489.31;;;15.76;62.82
75747;BME280;64363;52.198;21.020;2023-05-02T11:30:52;100494.44;;;15.63;63.57
75747;BME280;64363;52.198;21.020;2023-05-02T11:33:18;100502.06;;;15.54;64.28
75747;BME280;64363;52.198;21.020;2023-05-02T11:35:45;100512.06;;;15.52;64.97
75747;BME280;64363;52.198;21.020;2023-05-02T11:38:15;100509.69;;;15.63;64.29
75747;BME280;64363;52.198;21.020;2023-05-02T11:40:49;100513.13;;;15.83;63.81
75747;BME280;64363;52.198;21.020;2023-05-02T11:43:17;100511.59;;;15.78;64.23
75747;BME280;64363;52.198;21.020;2023-05-02T11:45:42;100514.06;;;16.00;63.24
75747;BME280;64363;52.198;21.020;2023-05-02T11:48:12;100518.19;;;16.24;61.63
75747;BME280;64363;52.198;21.020;2023-05-02T11:50:46;100525.56;;;16.53;61.17
75747;BME280;64363;52.198;21.020;2023-05-02T11:53:13;100521.63;;;16.60;60.89
75747;BME280;64363;52.198;21.020;2023-05-02T11:55:46;100524.22;;;16.62;60.12
75747;BME280;64363;52.198;21.020;2023-05-02T11:58:20;100523.66;;;16.55;59.87
75747;BME280;64363;52.198;21.020;2023-05-02T12:00:46;100524.38;;;16.76;59.58
75747;BME280;64363;52.198;21.020;2023-05-02T12:05:49;100529.50;;;16.80;56.96
75747;BME280;64363;52.198;21.020;2023-05-02T12:08:26;100535.78;;;16.97;56.13
75747;BME280;64363;52.198;21.020;2023-05-02T12:10:55;100539.44;;;16.96;56.53
75747;BME280;64363;52.198;21.020;2023-05-02T12:13:23;100547.06;;;17.03;56.99
75747;BME280;64363;52.198;21.020;2023-05-02T12:15:51;100536.69;;;17.13;55.40
75747;BME280;64363;52.198;21.020;2023-05-02T12:18:19;100541.50;;;17.53;54.71
75747;BME280;64363;52.198;21.020;2023-05-02T12:20:45;100541.84;;;17.94;53.88
75747;BME280;64363;52.198;21.020;2023-05-02T12:23:11;100539.00;;;18.41;52.26
75747;BME280;64363;52.198;21.020;2023-05-02T12:25:39;100540.09;;;18.53;52.01
75747;BME280;64363;52.198;21.020;2023-05-02T12:28:05;100542.47;;;19.14;50.56
75747;BME280;64363;52.198;21.020;2023-05-02T12:30:30;100544.97;;;19.31;49.33
75747;BME280;64363;52.198;21.020;2023-05-02T12:32:59;100549.63;;;19.15;49.36
75747;BME280;64363;52.198;21.020;2023-05-02T12:35:26;100557.34;;;19.49;48.77
75747;BME280;64363;52.198;21.020;2023-05-02T12:37:53;100543.72;;;19.51;48.37
75747;BME280;64363;52.198;21.020;2023-05-02T12:40:19;100541.50;;;19.57;48.29
75747;BME280;64363;52.198;21.020;2023-05-02T12:43:02;100543.56;;;19.26;47.89
75747;BME280;64363;52.198;21.020;2023-05-02T12:45:32;100543.97;;;19.60;47.84
75747;BME280;64363;52.198;21.020;2023-05-02T12:48:20;100541.22;;;20.14;47.00
75747;BME280;64363;52.198;21.020;2023-05-02T12:50:46;100537.75;;;20.12;46.59
75747;BME280;64363;52.198;21.020;2023-05-02T12:53:12;100550.13;;;19.77;47.18
75747;BME280;64363;52.198;21.020;2023-05-02T12:55:38;100545.63;;;19.90;47.05
75747;BME280;64363;52.198;21.020;2023-05-02T12:58:05;100541.06;;;19.63;46.44
75747;BME280;64363;52.198;21.020;2023-05-02T13:00:33;100550.81;;;19.25;44.68
75747;BME280;64363;52.198;21.020;2023-05-02T13:02:59;100556.50;;;18.78;44.23
75747;BME280;64363;52.198;21.020;2023-05-02T13:05:25;100550.06;;;18.37;45.68
75747;BME280;64363;52.198;21.020;2023-05-02T13:07:51;100559.91;;;18.08;46.99
75747;BME280;64363;52.198;21.020;2023-05-02T13:10:17;100562.38;;;17.97;47.68
75747;BME280;64363;52.198;21.020;2023-05-02T13:12:44;100562.56;;;17.78;47.83
75747;BME280;64363;52.198;21.020;2023-05-02T13:15:11;100574.75;;;17.69;48.63
75747;BME280;64363;52.198;21.020;2023-05-02T13:17:37;100573.53;;;17.91;48.64
75747;BME280;64363;52.198;21.020;2023-05-02T13:20:03;100578.50;;;17.83;48.69
75747;BME280;64363;52.198;21.020;2023-05-02T13:22:29;100576.50;;;17.70;47.59
75747;BME280;64363;52.198;21.020;2023-05-02T13:24:55;100592.06;;;17.65;47.90
75747;BME280;64363;52.198;21.020;2023-05-02T13:27:24;100589.53;;;17.78;47.48
75747;BME280;64363;52.198;21.020;2023-05-02T13:29:49;100579.53;;;17.96;46.00
75747;BME280;64363;52.198;21.020;2023-05-02T13:32:15;100585.38;;;18.18;45.69
75747;BME280;64363;52.198;21.020;2023-05-02T13:34:41;100575.09;;;18.54;45.06
75747;BME280;64363;52.198;21.020;2023-05-02T13:37:07;100567.59;;;18.88;43.61
75747;BME280;64363;52.198;21.020;2023-05-02T13:39:33;100580.94;;;19.05;44.02
75747;BME280;64363;52.198;21.020;2023-05-02T13:41:59;100572.88;;;19.32;43.65
75747;BME280;64363;52.198;21.020;2023-05-02T13:44:28;100568.69;;;19.95;41.10
75747;BME280;64363;52.198;21.020;2023-05-02T13:46:53;100567.31;;;20.29;40.14
75747;BME280;64363;52.198;21.020;2023-05-02T13:49:19;100570.88;;;20.03;39.92
75747;BME280;64363;52.198;21.020;2023-05-02T13:51:46;100574.31;;;19.66;41.17
75747;BME280;64363;52.198;21.020;2023-05-02T13:54:11;100577.38;;;19.74;40.37
75747;BME280;64363;52.198;21.020;2023-05-02T13:56:37;100580.69;;;19.65;41.04
75747;BME280;64363;52.198;21.020;2023-05-02T13:59:05;100578.78;;;19.79;41.50
75747;BME280;64363;52.198;21.020;2023-05-02T14:01:31;100578.63;;;20.22;40.41
75747;BME280;64363;52.198;21.020;2023-05-02T14:03:57;100582.81;;;20.52;38.59
75747;BME280;64363;52.198;21.020;2023-05-02T14:06:23;100582.06;;;20.50;38.46
75747;BME280;64363;52.198;21.020;2023-05-02T14:08:48;100581.25;;;19.96;39.90
75747;BME280;64363;52.198;21.020;2023-05-02T14:11:16;100580.94;;;19.74;40.73
75747;BME280;64363;52.198;21.020;2023-05-02T14:13:42;100586.53;;;19.71;40.83
75747;BME280;64363;52.198;21.020;2023-05-02T14:16:08;100585.59;;;19.72;40.77
75747;BME280;64363;52.198;21.020;2023-05-02T14:18:33;100581.78;;;19.75;41.08
75747;BME280;64363;52.198;21.020;2023-05-02T14:20:59;100583.03;;;19.42;41.41